createdAt,value
2022-09-02T00:01:34.750Z,79.06
2022-09-02T00:04:03.915Z,76.66
2022-09-02T00:06:31.579Z,78.03
2022-09-02T00:08:58.722Z,78.65
2022-09-02T00:11:29.154Z,79.59
2022-09-02T00:13:55.998Z,79.77
2022-09-02T00:16:24.124Z,80.36
2022-09-02T00:18:52.155Z,80.48
2022-09-02T00:21:20.283Z,80.44
2022-09-02T00:23:46.903Z,79.43
2022-09-02T00:26:14.307Z,79.83
2022-09-02T00:28:48.959Z,80.16
2022-09-02T00:31:17.683Z,80.30
2022-09-02T00:33:44.498Z,80.42
2022-09-02T00:36:11.851Z,80.84
2022-09-02T00:38:39.791Z,81.12
2022-09-02T00:41:08.690Z,81.23
2022-09-02T00:43:47.088Z,81.21
2022-09-02T00:46:16.856Z,81.07
2022-09-02T00:48:52.981Z,81.43
2022-09-02T00:51:20.420Z,81.02
2022-09-02T00:53:48.658Z,81.09
2022-09-02T00:56:21.351Z,81.27
2022-09-02T00:58:49.101Z,81.02
2022-09-02T01:01:15.681Z,81.07
2022-09-02T01:03:42.253Z,80.97
2022-09-02T01:06:15.292Z,80.95
2022-09-02T01:08:46.435Z,81.53
2022-09-02T01:11:13.500Z,81.46
2022-09-02T01:13:41.976Z,81.34
2022-09-02T01:16:25.086Z,82.24
2022-09-02T01:18:55.245Z,81.85
2022-09-02T01:21:23.171Z,81.57
2022-09-02T01:23:51.035Z,81.77
2022-09-02T01:26:17.804Z,81.37
2022-09-02T01:28:44.434Z,81.84
2022-09-02T01:31:11.260Z,81.75
2022-09-02T01:33:37.776Z,81.72
2022-09-02T01:36:04.971Z,81.98
2022-09-02T01:38:31.876Z,81.46
2022-09-02T01:40:58.686Z,82.14
2022-09-02T01:43:27.133Z,82.29
2022-09-02T01:45:56.158Z,82.60
2022-09-02T01:48:22.944Z,82.52
2022-09-02T01:50:57.099Z,82.95
2022-09-02T01:53:23.906Z,82.05
2022-09-02T01:55:50.730Z,82.67
2022-09-02T01:58:17.757Z,83.10
2022-09-02T02:00:44.569Z,83.39
2022-09-02T02:03:11.248Z,83.52
2022-09-02T02:05:38.138Z,83.26
2022-09-02T02:08:04.874Z,83.66
2022-09-02T02:10:32.078Z,83.34
2022-09-02T02:13:00.398Z,83.26
2022-09-02T02:17:52.375Z,83.39
2022-09-02T02:20:20.521Z,83.93
2022-09-02T02:22:47.905Z,83.73
2022-09-02T02:25:15.705Z,83.41
2022-09-02T02:27:43.743Z,83.50
2022-09-02T02:30:11.238Z,83.48
2022-09-02T02:32:37.979Z,83.91
2022-09-02T02:35:04.886Z,83.60
2022-09-02T02:37:31.756Z,83.70
2022-09-02T02:39:58.190Z,83.95
2022-09-02T02:42:24.655Z,83.94
2022-09-02T02:44:51.160Z,84.62
2022-09-02T02:47:18.120Z,84.63
2022-09-02T02:49:44.714Z,84.70
2022-09-02T02:52:12.699Z,85.04
2022-09-02T02:54:40.737Z,84.68
2022-09-02T02:57:08.197Z,85.04
2022-09-02T02:59:34.746Z,85.31
2022-09-02T03:02:01.331Z,84.88
2022-09-02T03:04:28.112Z,85.14
2022-09-02T03:06:54.809Z,85.35
2022-09-02T03:09:21.375Z,85.44
2022-09-02T03:11:48.219Z,85.39
2022-09-02T03:14:15.081Z,85.50
2022-09-02T03:16:41.902Z,85.09
2022-09-02T03:19:08.518Z,85.15
2022-09-02T03:21:38.914Z,85.66
2022-09-02T03:24:06.135Z,85.13
2022-09-02T03:26:32.841Z,85.49
2022-09-02T03:28:59.742Z,85.20
2022-09-02T03:31:27.565Z,85.41
2022-09-02T03:33:55.090Z,85.66
2022-09-02T03:36:27.924Z,85.49
2022-09-02T03:38:55.485Z,85.30
2022-09-02T03:41:22.570Z,85.71
2022-09-02T03:43:52.202Z,86.08
2022-09-02T03:46:19.736Z,85.71
2022-09-02T03:48:46.984Z,85.82
2022-09-02T03:51:13.665Z,85.84
2022-09-02T03:53:40.256Z,85.54
2022-09-02T03:56:12.091Z,85.68
2022-09-02T03:58:40.770Z,85.79
2022-09-02T04:01:08.521Z,86.17
2022-09-02T04:03:34.976Z,86.14
2022-09-02T04:06:01.392Z,85.88
2022-09-02T04:08:28.022Z,86.12
2022-09-02T04:10:56.233Z,85.95
2022-09-02T04:13:23.084Z,86.01
2022-09-02T04:15:49.836Z,85.99
2022-09-02T04:18:17.455Z,86.10
2022-09-02T04:20:45.066Z,85.95
2022-09-02T04:23:12.086Z,85.83
2022-09-02T04:25:41.152Z,86.37
2022-09-02T04:28:08.281Z,86.17
2022-09-02T04:30:34.907Z,86.00
2022-09-02T04:33:01.361Z,86.37
2022-09-02T04:35:28.087Z,86.52
2022-09-02T04:37:54.523Z,86.97
2022-09-02T04:40:21.243Z,87.09
2022-09-02T04:42:47.896Z,87.59
2022-09-02T04:45:14.626Z,87.25
2022-09-02T04:47:41.152Z,87.12
2022-09-02T04:50:07.858Z,87.41
2022-09-02T04:52:34.326Z,87.44
2022-09-02T04:55:00.748Z,87.92
2022-09-02T04:57:27.184Z,87.49
2022-09-02T04:59:53.961Z,87.38
2022-09-02T05:02:20.578Z,87.74
2022-09-02T05:04:47.214Z,88.04
2022-09-02T05:07:14.073Z,88.46
2022-09-02T05:09:40.483Z,88.70
2022-09-02T05:12:07.412Z,88.60
2022-09-02T05:14:33.880Z,88.77
2022-09-02T05:17:05.085Z,89.09
2022-09-02T05:19:34.388Z,89.45
2022-09-02T05:22:01.867Z,89.27
2022-09-02T05:24:29.737Z,89.49
2022-09-02T05:26:56.312Z,89.74
2022-09-02T05:29:23.795Z,90.15
2022-09-02T05:31:50.856Z,90.66
2022-09-02T05:34:18.492Z,90.87
2022-09-02T05:36:45.618Z,90.90
2022-09-02T05:39:12.161Z,91.20
2022-09-02T05:41:38.728Z,91.39
2022-09-02T05:44:06.801Z,91.80
2022-09-02T05:46:33.797Z,91.57
2022-09-02T05:49:07.299Z,91.62
2022-09-02T05:51:42.941Z,92.49
2022-09-02T05:54:18.264Z,92.54
2022-09-02T05:56:46.349Z,92.36
2022-09-02T05:59:13.798Z,92.59
2022-09-02T06:01:41.358Z,92.80
2022-09-02T06:04:08.191Z,92.51
2022-09-02T06:06:36.205Z,92.75
2022-09-02T06:09:04.266Z,92.44
2022-09-02T06:11:30.686Z,92.61
2022-09-02T06:13:57.396Z,92.51
2022-09-02T06:16:24.069Z,92.76
2022-09-02T06:18:51.378Z,92.52
2022-09-02T06:21:20.786Z,91.95
2022-09-02T06:23:47.970Z,91.77
2022-09-02T06:26:16.121Z,91.42
2022-09-02T06:28:45.343Z,90.64
2022-09-02T06:31:18.409Z,89.59
2022-09-02T06:33:46.531Z,88.58
2022-09-02T06:36:17.427Z,88.21
2022-09-02T06:38:47.514Z,86.66
2022-09-02T06:41:16.903Z,85.84
2022-09-02T06:43:43.418Z,84.60
2022-09-02T06:46:22.538Z,84.05
2022-09-02T06:48:50.199Z,82.77
2022-09-02T06:51:22.030Z,82.45
2022-09-02T06:53:48.510Z,80.78
2022-09-02T06:56:15.102Z,77.77
2022-09-02T06:58:41.867Z,77.36
2022-09-02T07:01:17.101Z,75.04
2022-09-02T07:04:02.471Z,73.09
2022-09-02T07:06:28.938Z,72.07
2022-09-02T07:08:55.372Z,70.85
2022-09-02T07:11:24.014Z,70.45
2022-09-02T07:13:50.989Z,70.52
2022-09-02T07:16:18.332Z,69.35
2022-09-02T07:18:53.206Z,69.97
2022-09-02T07:21:19.674Z,68.38
2022-09-02T07:23:46.116Z,67.88
2022-09-02T07:26:15.280Z,66.60
2022-09-02T07:28:43.135Z,65.35
2022-09-02T07:31:16.039Z,65.19
2022-09-02T07:33:44.937Z,64.92
2022-09-02T07:36:16.654Z,65.63
2022-09-02T07:38:43.319Z,64.26
2022-09-02T07:41:10.780Z,63.76
2022-09-02T07:43:38.123Z,63.71
2022-09-02T07:46:05.694Z,62.69
2022-09-02T07:48:33.607Z,62.51
2022-09-02T07:51:00.940Z,61.16
2022-09-02T07:53:28.049Z,60.49
2022-09-02T07:55:54.613Z,59.42
2022-09-02T07:58:22.446Z,59.11
2022-09-02T08:00:50.151Z,59.62
2022-09-02T08:03:17.250Z,57.99
2022-09-02T08:05:47.884Z,57.33
2022-09-02T08:08:17.054Z,56.84
2022-09-02T08:10:43.651Z,57.56
2022-09-02T08:13:11.023Z,56.74
2022-09-02T08:15:38.934Z,56.93
2022-09-02T08:18:07.148Z,56.48
2022-09-02T08:20:35.550Z,56.05
2022-09-02T08:23:11.105Z,55.83
2022-09-02T08:25:40.777Z,56.16
2022-09-02T08:28:07.350Z,55.67
2022-09-02T08:30:34.242Z,54.55
2022-09-02T08:33:00.718Z,53.82
2022-09-02T08:35:27.336Z,55.79
2022-09-02T08:37:53.858Z,53.06
2022-09-02T08:40:23.493Z,52.90
2022-09-02T08:42:54.209Z,53.40
2022-09-02T08:45:28.288Z,52.37
2022-09-02T08:48:19.104Z,51.67
2022-09-02T08:50:47.619Z,51.15
2022-09-02T08:53:26.882Z,51.80
2022-09-02T08:55:55.885Z,51.70
2022-09-02T08:58:28.008Z,50.47
2022-09-02T09:01:15.084Z,50.92
2022-09-02T09:04:08.017Z,51.02
2022-09-02T09:06:53.921Z,49.06
2022-09-02T09:09:39.814Z,49.62
2022-09-02T09:12:35.727Z,50.25
2022-09-02T09:15:19.410Z,48.15
2022-09-02T09:17:58.131Z,48.54
2022-09-02T09:20:30.368Z,47.98
2022-09-02T09:22:59.933Z,46.22
2022-09-02T09:25:31.864Z,46.08
2022-09-02T09:28:01.934Z,45.50
2022-09-02T09:30:29.550Z,43.58
2022-09-02T09:32:59.861Z,42.06
2022-09-02T09:35:28.844Z,41.53
2022-09-02T09:37:55.949Z,41.05
2022-09-02T09:40:30.583Z,40.72
2022-09-02T09:43:14.708Z,42.03
2022-09-02T09:45:46.365Z,39.47
2022-09-02T09:48:27.991Z,39.38
2022-09-02T09:50:57.295Z,38.29
2022-09-02T09:53:29.601Z,38.51
2022-09-02T09:56:05.189Z,37.38
2022-09-02T09:58:40.721Z,36.68
2022-09-02T10:01:33.058Z,37.37
2022-09-02T10:04:20.693Z,37.68
2022-09-02T10:06:52.858Z,36.77
2022-09-02T10:09:19.861Z,35.21
2022-09-02T10:12:06.902Z,37.69
2022-09-02T10:14:46.703Z,34.49
2022-09-02T10:17:51.322Z,35.78
2022-09-02T10:20:48.469Z,35.74
2022-09-02T10:23:42.174Z,34.28
2022-09-02T10:26:29.427Z,33.63
2022-09-02T10:29:14.492Z,34.09
2022-09-02T10:31:52.185Z,33.54
2022-09-02T10:34:40.118Z,32.95
2022-09-02T10:37:18.857Z,33.59
2022-09-02T10:40:07.866Z,34.43
2022-09-02T10:43:11.935Z,34.63
2022-09-02T10:45:45.166Z,32.34
2022-09-02T10:48:29.946Z,32.68
2022-09-02T10:51:06.705Z,32.69
2022-09-02T10:53:43.861Z,33.81
2022-09-02T10:56:17.243Z,33.25
2022-09-02T10:59:05.994Z,33.25
2022-09-02T11:01:41.773Z,33.93
2022-09-02T11:04:16.335Z,32.99
2022-09-02T11:07:02.399Z,33.69
2022-09-02T11:09:52.865Z,33.87
2022-09-02T11:12:31.693Z,33.46
2022-09-02T11:15:11.714Z,33.98
2022-09-02T11:18:04.900Z,33.98
2022-09-02T11:21:00.849Z,33.63
2022-09-02T11:24:05.720Z,32.37
2022-09-02T11:26:56.287Z,32.29
2022-09-02T11:29:35.075Z,31.52
2022-09-02T11:32:10.394Z,31.28
2022-09-02T11:34:48.839Z,32.28
2022-09-02T11:37:29.956Z,29.15
2022-09-02T11:40:34.178Z,30.40
2022-09-02T11:43:04.152Z,28.66
2022-09-02T11:45:58.255Z,29.56
2022-09-02T11:48:33.975Z,28.15
2022-09-02T11:51:32.286Z,28.58
2022-09-02T11:54:03.049Z,28.84
2022-09-02T11:56:39.788Z,28.15
2022-09-02T11:59:08.449Z,29.29
2022-09-02T12:01:43.715Z,30.61
2022-09-02T12:07:08.699Z,30.95
2022-09-02T12:09:50.655Z,30.71
2022-09-02T12:12:36.256Z,31.56
2022-09-02T12:15:06.212Z,30.36
2022-09-02T12:17:44.336Z,30.70
2022-09-02T12:20:32.929Z,32.00
2022-09-02T12:23:00.106Z,31.31
2022-09-02T12:25:27.378Z,31.10
2022-09-02T12:28:18.818Z,32.00
2022-09-02T12:31:07.636Z,31.29
2022-09-02T12:33:38.608Z,31.05
2022-09-02T12:36:07.348Z,31.49
2022-09-02T12:38:41.488Z,33.20
2022-09-02T12:41:13.373Z,31.48
2022-09-02T12:43:52.966Z,31.03
2022-09-02T12:46:31.518Z,30.74
2022-09-02T12:49:33.271Z,31.42
2022-09-02T12:52:06.795Z,30.92
2022-09-02T12:54:39.682Z,30.00
2022-09-02T12:57:08.216Z,29.49
2022-09-02T12:59:38.175Z,30.09
2022-09-02T13:02:29.639Z,30.66
2022-09-02T13:05:10.384Z,31.47
2022-09-02T13:07:46.979Z,30.51
2022-09-02T13:10:33.172Z,31.84
2022-09-02T13:13:41.647Z,32.11
2022-09-02T13:16:18.548Z,31.62
2022-09-02T13:19:04.399Z,31.03
2022-09-02T13:22:10.683Z,31.68
2022-09-02T13:24:55.742Z,31.40
2022-09-02T13:27:28.403Z,30.32
2022-09-02T13:30:15.096Z,31.54
2022-09-02T13:32:42.252Z,30.54
2022-09-02T13:35:23.991Z,29.96
2022-09-02T13:37:56.555Z,30.80
2022-09-02T13:40:29.922Z,30.85
2022-09-02T13:43:01.563Z,30.96
2022-09-02T13:45:31.581Z,31.17
2022-09-02T13:48:15.111Z,30.35
2022-09-02T13:50:50.806Z,30.57
2022-09-02T13:53:46.004Z,31.32
2022-09-02T13:56:17.218Z,29.76
2022-09-02T13:58:52.642Z,29.32
2022-09-02T14:01:24.136Z,29.19
2022-09-02T14:03:53.869Z,29.18
2022-09-02T14:06:25.110Z,29.77
2022-09-02T14:08:55.651Z,28.82
2022-09-02T14:11:22.913Z,28.83
2022-09-02T14:13:50.913Z,29.05
2022-09-02T14:16:25.257Z,29.59
2022-09-02T14:19:22.721Z,29.48
2022-09-02T14:21:56.556Z,28.20
2022-09-02T14:24:24.604Z,28.28
2022-09-02T14:26:54.124Z,27.72
2022-09-02T14:29:21.580Z,27.49
2022-09-02T14:32:14.285Z,28.36
2022-09-02T14:34:45.398Z,28.08
2022-09-02T14:37:28.668Z,28.32
2022-09-02T14:40:11.984Z,29.00
2022-09-02T14:42:48.635Z,29.67
2022-09-02T14:45:33.716Z,30.08
2022-09-02T14:48:15.884Z,30.46
2022-09-02T14:50:42.444Z,29.78
2022-09-02T14:53:11.189Z,30.74
2022-09-02T14:55:55.055Z,30.32
2022-09-02T14:58:24.760Z,30.29
2022-09-02T15:00:58.200Z,30.69
2022-09-02T15:03:25.426Z,30.33
2022-09-02T15:05:52.382Z,30.49
2022-09-02T15:08:18.941Z,30.51
2022-09-02T15:10:45.735Z,31.18
2022-09-02T15:13:26.115Z,31.59
2022-09-02T15:15:53.176Z,30.69
2022-09-02T15:18:19.673Z,31.32
2022-09-02T15:20:46.199Z,32.34
2022-09-02T15:23:12.772Z,31.71
2022-09-02T15:25:39.758Z,31.77
2022-09-02T15:28:06.296Z,32.41
2022-09-02T15:30:35.981Z,32.44
2022-09-02T15:33:04.480Z,32.85
2022-09-02T15:35:33.814Z,32.27
2022-09-02T15:38:02.130Z,32.29
2022-09-02T15:40:29.758Z,32.57
2022-09-02T15:42:57.483Z,31.75
2022-09-02T15:45:24.202Z,32.11
2022-09-02T15:47:50.671Z,30.89
2022-09-02T15:50:17.314Z,31.84
2022-09-02T15:52:47.047Z,32.47
2022-09-02T15:55:13.499Z,32.73
2022-09-02T15:57:41.209Z,31.98
2022-09-02T16:00:09.747Z,31.69
2022-09-02T16:02:37.131Z,30.74
2022-09-02T16:05:03.891Z,30.96
2022-09-02T16:07:31.061Z,29.60
2022-09-02T16:10:01.335Z,29.87
2022-09-02T16:12:32.244Z,28.75
2022-09-02T16:14:59.439Z,29.25
2022-09-02T16:17:25.890Z,29.16
2022-09-02T16:19:53.814Z,28.90
2022-09-02T16:22:20.295Z,28.58
2022-09-02T16:24:46.816Z,29.09
2022-09-02T16:27:13.270Z,28.88
2022-09-02T16:29:40.682Z,29.77
2022-09-02T16:32:24.403Z,28.99
2022-09-02T16:34:55.628Z,29.06
2022-09-02T16:37:22.081Z,29.36
2022-09-02T16:39:48.616Z,29.21
2022-09-02T16:42:15.319Z,29.84
2022-09-02T16:44:41.813Z,28.67
2022-09-02T16:47:08.222Z,29.31
2022-09-02T16:49:39.334Z,28.85
2022-09-02T16:52:05.792Z,29.07
2022-09-02T16:54:35.194Z,28.94
2022-09-02T16:57:04.101Z,28.97
2022-09-02T16:59:33.239Z,29.05
2022-09-02T17:01:59.977Z,29.93
2022-09-02T17:04:26.654Z,29.74
2022-09-02T17:06:53.372Z,30.80
2022-09-02T17:09:20.646Z,31.66
2022-09-02T17:11:47.159Z,31.56
2022-09-02T17:14:16.288Z,32.54
2022-09-02T17:16:46.269Z,34.43
2022-09-02T17:19:21.147Z,34.46
2022-09-02T17:21:51.360Z,34.96
2022-09-02T17:24:19.326Z,34.78
2022-09-02T17:26:48.157Z,35.05
2022-09-02T17:29:37.860Z,35.22
2022-09-02T17:32:03.941Z,37.00
2022-09-02T17:34:33.230Z,35.49
2022-09-02T17:36:59.716Z,36.80
2022-09-02T17:39:26.861Z,36.37
2022-09-02T17:41:57.649Z,37.52
2022-09-02T17:44:27.032Z,37.34
2022-09-02T17:46:55.866Z,37.35
2022-09-02T17:49:22.625Z,37.79
2022-09-02T17:51:49.570Z,38.78
2022-09-02T17:54:15.999Z,39.18
2022-09-02T17:57:14.726Z,38.50
2022-09-02T17:59:53.433Z,39.57
2022-09-02T18:02:34.021Z,39.61
2022-09-02T18:05:21.517Z,39.83
2022-09-02T18:08:10.968Z,40.08
2022-09-02T18:10:43.242Z,41.28
2022-09-02T18:13:15.212Z,41.46
2022-09-02T18:16:01.270Z,40.98
2022-09-02T18:18:28.249Z,41.99
2022-09-02T18:21:03.910Z,42.37
2022-09-02T18:24:00.623Z,42.68
2022-09-02T18:26:29.654Z,42.61
2022-09-02T18:29:28.565Z,42.91
2022-09-02T18:32:08.163Z,43.19
2022-09-02T18:35:13.991Z,43.11
2022-09-02T18:37:55.883Z,43.16
2022-09-02T18:40:37.617Z,43.85
2022-09-02T18:43:34.862Z,44.13
2022-09-02T18:46:03.078Z,44.99
2022-09-02T18:48:34.718Z,44.48
2022-09-02T18:51:07.334Z,44.30
2022-09-02T18:53:40.298Z,45.09
2022-09-02T18:56:10.320Z,46.12
2022-09-02T18:58:38.510Z,45.46
2022-09-02T19:01:14.314Z,45.61
2022-09-02T19:03:40.784Z,46.57
2022-09-02T19:06:16.357Z,46.48
2022-09-02T19:08:45.347Z,46.42
2022-09-02T19:11:15.094Z,46.33
2022-09-02T19:13:46.762Z,46.59
2022-09-02T19:16:18.866Z,46.14
2022-09-02T19:18:46.369Z,46.99
2022-09-02T19:21:18.886Z,47.18
2022-09-02T19:23:47.776Z,46.73
2022-09-02T19:26:14.387Z,46.59
2022-09-02T19:28:41.420Z,46.97
2022-09-02T19:31:11.559Z,46.67
2022-09-02T19:33:42.543Z,47.05
2022-09-02T19:36:09.119Z,47.63
2022-09-02T19:38:37.297Z,47.80
2022-09-02T19:41:03.948Z,47.82
2022-09-02T19:43:30.478Z,48.11
2022-09-02T19:45:57.527Z,47.75
2022-09-02T19:48:24.268Z,47.55
2022-09-02T19:50:50.874Z,48.21
2022-09-02T19:53:17.365Z,48.19
2022-09-02T19:55:44.227Z,48.28
2022-09-02T19:58:11.084Z,48.04
2022-09-02T20:00:42.279Z,48.84
2022-09-02T20:03:10.218Z,48.72
2022-09-02T20:05:38.717Z,48.45
2022-09-02T20:08:05.284Z,48.92
2022-09-02T20:10:31.715Z,48.89
2022-09-02T20:12:59.134Z,48.76
2022-09-02T20:15:25.623Z,49.25
2022-09-02T20:17:52.157Z,49.57
2022-09-02T20:20:22.685Z,49.50
2022-09-02T20:22:57.411Z,49.26
2022-09-02T20:25:39.303Z,49.24
2022-09-02T20:28:08.866Z,49.31
2022-09-02T20:30:38.171Z,49.18
2022-09-02T20:33:19.682Z,48.73
2022-09-02T20:36:09.383Z,48.89
2022-09-02T20:39:03.984Z,48.92
2022-09-02T20:41:30.733Z,49.54
2022-09-02T20:44:20.911Z,48.86
2022-09-02T20:47:07.252Z,49.28
2022-09-02T20:49:57.117Z,49.18
2022-09-02T20:52:32.944Z,48.56
2022-09-02T20:55:50.049Z,49.14
2022-09-02T20:58:31.321Z,49.96
2022-09-02T21:01:11.499Z,49.78
2022-09-02T21:03:45.179Z,49.19
2022-09-02T21:06:12.185Z,50.11
2022-09-02T21:08:55.130Z,49.82
2022-09-02T21:11:22.354Z,49.95
2022-09-02T21:13:57.230Z,50.37
2022-09-02T21:16:32.393Z,50.09
2022-09-02T21:19:27.491Z,49.61
2022-09-02T21:22:03.985Z,49.89
2022-09-02T21:24:38.226Z,50.48
2022-09-02T21:27:12.719Z,50.43
2022-09-02T21:30:03.175Z,50.28
2022-09-02T21:33:10.010Z,50.07
2022-09-02T21:35:45.594Z,50.59
2022-09-02T21:38:37.841Z,50.20
2022-09-02T21:44:11.981Z,50.42
2022-09-02T21:46:59.662Z,51.02
2022-09-02T21:50:00.175Z,50.53
2022-09-02T21:52:45.492Z,50.47
2022-09-02T21:55:24.299Z,51.10
2022-09-02T21:58:09.489Z,50.80
2022-09-02T22:00:39.042Z,50.67
2022-09-02T22:03:16.089Z,51.04
2022-09-02T22:05:47.491Z,50.96
2022-09-02T22:08:33.648Z,50.51
2022-09-02T22:11:34.237Z,50.54
2022-09-02T22:14:28.956Z,50.88
2022-09-02T22:17:00.824Z,50.92
2022-09-02T22:19:30.943Z,50.87
2022-09-02T22:22:08.745Z,50.60
2022-09-02T22:24:37.395Z,50.76
2022-09-02T22:27:19.197Z,51.04
2022-09-02T22:29:50.928Z,50.91
2022-09-02T22:32:21.878Z,51.20
2022-09-02T22:35:22.014Z,50.86
2022-09-02T22:38:10.402Z,50.60
2022-09-02T22:40:44.649Z,51.00
2022-09-02T22:43:14.765Z,50.98
2022-09-02T22:46:07.101Z,51.18
2022-09-02T22:48:56.718Z,51.01
2022-09-02T22:51:47.707Z,51.32
2022-09-02T22:54:14.194Z,51.18
2022-09-02T22:57:30.218Z,50.69
2022-09-02T23:00:09.330Z,51.41
2022-09-02T23:02:41.475Z,51.44
2022-09-02T23:05:43.228Z,51.36
2022-09-02T23:08:11.324Z,51.81
2022-09-02T23:10:47.428Z,51.44
2022-09-02T23:13:21.656Z,51.44
2022-09-02T23:15:58.472Z,51.38
2022-09-02T23:18:33.589Z,51.28
2022-09-02T23:21:19.631Z,52.05
2022-09-02T23:24:02.012Z,51.63
2022-09-02T23:26:49.865Z,51.67
2022-09-02T23:29:25.903Z,51.82
2022-09-02T23:32:23.817Z,51.38
2022-09-02T23:35:14.142Z,51.72
2022-09-02T23:37:55.610Z,50.61
2022-09-02T23:40:44.678Z,51.73
2022-09-02T23:43:18.146Z,52.59
2022-09-02T23:45:46.776Z,52.58
2022-09-02T23:48:52.081Z,51.97
2022-09-02T23:51:32.645Z,52.63
2022-09-02T23:54:28.487Z,52.58
2022-09-02T23:57:00.969Z,53.40
2022-09-02T23:59:46.174Z,53.23
